Time;durP1;ratioP1;P1;durP2;ratioP2;P2;SDS_P1;SDS_P2;PMS_P1;PMS_P2;Temp;Humidity;BMP_temperature;BMP_pressure;BME280_temperature;BME280_humidity;BME280_pressure;Samples;Min_cycle;Max_cycle;Signal;HPM_P1;HPM_P2
2024/03/25 00:00:35;;;;;;;1.23;0.60;;;;;;;;;;6273778;28;20134;-73
2024/03/25 00:03:35;;;;;;;0.70;0.37;;;;;;;;;;6272982;28;20021;-73
2024/03/25 00:06:38;;;;;;;1.05;0.60;;;;;;;;;;6274426;28;20045;-72
2024/03/25 00:09:38;;;;;;;0.88;0.47;;;;;;;;;;6277980;28;20052;-73
2024/03/25 00:12:38;;;;;;;1.33;0.40;;;;;;;;;;6300218;28;20510;-72
2024/03/25 00:15:39;;;;;;;0.53;0.33;;;;;;;;;;6278911;28;20508;-76
2024/03/25 00:18:39;;;;;;;0.70;0.50;;;;;;;;;;6273260;28;20060;-76
2024/03/25 00:21:39;;;;;;;0.60;0.40;;;;;;;;;;6274013;28;20264;-76
2024/03/25 00:24:40;;;;;;;0.50;0.40;;;;;;;;;;6272756;28;20462;-76
2024/03/25 00:27:40;;;;;;;0.70;0.40;;;;;;;;;;6288897;28;20173;-76
2024/03/25 00:30:40;;;;;;;1.10;0.60;;;;;;;;;;6299882;28;20445;-76
2024/03/25 00:33:40;;;;;;;1.00;0.60;;;;;;;;;;6256844;28;20462;-76
2024/03/25 00:36:40;;;;;;;1.20;0.70;;;;;;;;;;6265280;28;20025;-76
2024/03/25 00:39:41;;;;;;;0.80;0.60;;;;;;;;;;6271883;28;20047;-76
2024/03/25 00:42:41;;;;;;;0.40;0.40;;;;;;;;;;6258524;28;20405;-76
2024/03/25 00:45:41;;;;;;;0.23;0.20;;;;;;;;;;6274359;28;20033;-76
2024/03/25 00:48:42;;;;;;;0.30;0.20;;;;;;;;;;6271281;28;20036;-77
2024/03/25 00:51:43;;;;;;;0.32;0.30;;;;;;;;;;6271954;28;20032;-76
2024/03/25 00:54:43;;;;;;;0.37;0.30;;;;;;;;;;6273312;28;20040;-76
2024/03/25 00:57:43;;;;;;;0.20;0.20;;;;;;;;;;6273205;28;20374;-76
2024/03/25 01:00:44;;;;;;;0.50;0.30;;;;;;;;;;6279313;28;20420;-76
2024/03/25 01:03:44;;;;;;;0.30;0.30;;;;;;;;;;6290291;28;20108;-76
2024/03/25 01:06:44;;;;;;;0.20;0.20;;;;;;;;;;6272304;28;20040;-76
2024/03/25 01:09:44;;;;;;;1.07;0.30;;;;;;;;;;6272714;28;20082;-76
2024/03/25 01:12:45;;;;;;;0.30;0.20;;;;;;;;;;6256171;28;20013;-76
2024/03/25 01:15:45;;;;;;;0.80;0.30;;;;;;;;;;6272441;28;20428;-76
2024/03/25 01:18:45;;;;;;;0.20;0.20;;;;;;;;;;6272098;28;20873;-75
2024/03/25 01:21:46;;;;;;;0.20;0.20;;;;;;;;;;6269448;28;20389;-76
2024/03/25 01:24:46;;;;;;;0.40;0.40;;;;;;;;;;6248378;28;20485;-76
2024/03/25 01:27:46;;;;;;;0.20;0.20;;;;;;;;;;6271109;28;20489;-76
2024/03/25 01:30:46;;;;;;;0.40;0.37;;;;;;;;;;6273764;28;20461;-76
2024/03/25 01:33:47;;;;;;;0.67;0.30;;;;;;;;;;6270697;28;20453;-76
2024/03/25 01:36:47;;;;;;;0.30;0.30;;;;;;;;;;6278150;28;20148;-76
2024/03/25 01:39:47;;;;;;;0.50;0.23;;;;;;;;;;6270916;28;20028;-76
2024/03/25 01:43:01;;;;;;;0.20;0.20;;;;;;;;;;6255018;28;20116;-75
2024/03/25 01:46:01;;;;;;;0.35;0.22;;;;;;;;;;6273271;28;20539;-76
2024/03/25 01:49:01;;;;;;;0.30;0.30;;;;;;;;;;6271495;28;20025;-76
2024/03/25 01:52:02;;;;;;;0.20;0.20;;;;;;;;;;6271899;28;20151;-76
2024/03/25 01:55:03;;;;;;;0.90;0.23;;;;;;;;;;6272818;28;20024;-75
2024/03/25 01:58:03;;;;;;;;;;;;;;;;;;6271102;28;20025;-76
2024/03/25 02:01:04;;;;;;;0.20;0.20;;;;;;;;;;6272545;28;19927;-76
2024/03/25 02:04:04;;;;;;;0.27;0.20;;;;;;;;;;6269966;28;20522;-76
2024/03/25 02:07:05;;;;;;;0.07;0.07;;;;;;;;;;6271177;28;20453;-75
2024/03/25 02:10:06;;;;;;;0.30;0.20;;;;;;;;;;6290520;28;20483;-76
2024/03/25 02:13:07;;;;;;;0.28;0.10;;;;;;;;;;6287631;28;20025;-76
2024/03/25 02:16:07;;;;;;;0.20;0.20;;;;;;;;;;6270636;28;20028;-76
2024/03/25 02:19:08;;;;;;;0.30;0.23;;;;;;;;;;6270418;28;20120;-76
2024/03/25 02:22:09;;;;;;;0.55;0.20;;;;;;;;;;6271280;28;20531;-76
2024/03/25 02:25:10;;;;;;;0.20;0.20;;;;;;;;;;6272947;28;20029;-76
2024/03/25 02:28:10;;;;;;;0.20;0.20;;;;;;;;;;6272412;28;20020;-76
2024/03/25 02:31:10;;;;;;;0.30;0.20;;;;;;;;;;6272711;28;20032;-76
2024/03/25 02:34:11;;;;;;;0.20;0.20;;;;;;;;;;6257626;28;20075;-76
2024/03/25 02:37:11;;;;;;;0.20;0.20;;;;;;;;;;6273554;28;20082;-76
2024/03/25 02:40:11;;;;;;;0.63;0.30;;;;;;;;;;6277475;28;20370;-76
2024/03/25 02:43:13;;;;;;;0.30;0.30;;;;;;;;;;6277540;28;20020;-76
2024/03/25 02:46:13;;;;;;;0.30;0.20;;;;;;;;;;6277363;28;20055;-76
2024/03/25 02:49:14;;;;;;;0.47;0.40;;;;;;;;;;6273003;28;20123;-75
2024/03/25 02:52:14;;;;;;;0.30;0.30;;;;;;;;;;6275825;28;20032;-76
2024/03/25 02:55:14;;;;;;;0.73;0.30;;;;;;;;;;6277475;28;20049;-76
2024/03/25 02:58:15;;;;;;;0.37;0.37;;;;;;;;;;6275393;28;20078;-76
2024/03/25 03:01:16;;;;;;;0.30;0.30;;;;;;;;;;6276560;28;20025;-76
2024/03/25 03:04:16;;;;;;;0.30;0.30;;;;;;;;;;6274106;28;20021;-76
2024/03/25 03:07:16;;;;;;;0.30;0.30;;;;;;;;;;6274958;28;20492;-76
2024/03/25 03:10:16;;;;;;;0.50;0.50;;;;;;;;;;6276332;28;20477;-76
2024/03/25 03:13:17;;;;;;;0.40;0.40;;;;;;;;;;6275191;28;20496;-76
2024/03/25 03:16:17;;;;;;;0.80;0.30;;;;;;;;;;6253440;28;20533;-76
2024/03/25 03:19:17;;;;;;;0.50;0.40;;;;;;;;;;6274042;28;20358;-76
2024/03/25 03:22:17;;;;;;;0.30;0.30;;;;;;;;;;6275458;28;20473;-76
2024/03/25 03:25:17;;;;;;;0.60;0.50;;;;;;;;;;6276180;28;20100;-76
2024/03/25 03:28:18;;;;;;;0.73;0.20;;;;;;;;;;6275006;28;20052;-76
2024/03/25 03:31:18;;;;;;;0.30;0.30;;;;;;;;;;6274894;28;20021;-76
2024/03/25 03:34:18;;;;;;;0.40;0.30;;;;;;;;;;6285732;28;20457;-75
2024/03/25 03:37:19;;;;;;;0.63;0.40;;;;;;;;;;6266346;28;20120;-76
2024/03/25 03:40:19;;;;;;;0.60;0.40;;;;;;;;;;6275923;28;20029;-76
2024/03/25 03:43:19;;;;;;;0.30;0.30;;;;;;;;;;6274120;28;20108;-76
2024/03/25 03:46:19;;;;;;;0.70;0.30;;;;;;;;;;6276054;28;20028;-76
2024/03/25 03:49:20;;;;;;;0.30;0.30;;;;;;;;;;6272295;28;20396;-75
2024/03/25 03:52:20;;;;;;;1.00;0.50;;;;;;;;;;6294369;28;20028;-75
2024/03/25 03:55:21;;;;;;;0.50;0.40;;;;;;;;;;6298552;28;20025;-75
2024/03/25 03:58:21;;;;;;;0.35;0.32;;;;;;;;;;6274535;28;20039;-76
2024/03/25 04:01:21;;;;;;;0.30;0.30;;;;;;;;;;6275315;28;20028;-76
2024/03/25 04:04:22;;;;;;;0.73;0.40;;;;;;;;;;6272477;28;20481;-76
2024/03/25 04:07:26;;;;;;;0.30;0.30;;;;;;;;;;6273547;28;20436;-76
2024/03/25 04:10:26;;;;;;;0.73;0.35;;;;;;;;;;6274612;28;20027;-75
2024/03/25 04:13:27;;;;;;;0.73;0.40;;;;;;;;;;6274982;28;20028;-76
2024/03/25 04:16:27;;;;;;;1.50;0.37;;;;;;;;;;6272062;28;20052;-75
2024/03/25 04:19:27;;;;;;;0.70;0.40;;;;;;;;;;6266129;28;20044;-76
2024/03/25 04:22:28;;;;;;;0.43;0.40;;;;;;;;;;6271879;28;20108;-76
2024/03/25 04:25:28;;;;;;;0.53;0.47;;;;;;;;;;6287364;28;20109;-76
2024/03/25 04:28:28;;;;;;;0.33;0.20;;;;;;;;;;6284021;28;20041;-76
2024/03/25 04:31:28;;;;;;;0.43;0.40;;;;;;;;;;6274719;28;20056;-76
2024/03/25 04:34:29;;;;;;;1.80;0.30;;;;;;;;;;6254973;28;20481;-76
2024/03/25 04:37:30;;;;;;;0.80;0.32;;;;;;;;;;6271130;28;20470;-76
2024/03/25 04:40:30;;;;;;;0.30;0.30;;;;;;;;;;6274622;28;20029;-76
2024/03/25 04:43:31;;;;;;;0.57;0.27;;;;;;;;;;6275005;28;20025;-76
2024/03/25 04:46:31;;;;;;;0.47;0.30;;;;;;;;;;6274249;28;20032;-75
2024/03/25 04:49:31;;;;;;;0.47;0.40;;;;;;;;;;6271105;28;20043;-76
2024/03/25 04:52:32;;;;;;;0.70;0.37;;;;;;;;;;6273715;28;20497;-75
2024/03/25 04:55:32;;;;;;;0.67;0.30;;;;;;;;;;6273161;28;20458;-75
2024/03/25 04:58:33;;;;;;;0.37;0.33;;;;;;;;;;6273495;28;20114;-76
2024/03/25 05:01:33;;;;;;;0.43;0.38;;;;;;;;;;6273863;28;20020;-76
2024/03/25 05:04:34;;;;;;;0.70;0.30;;;;;;;;;;6271873;28;20039;-75
2024/03/25 05:07:34;;;;;;;0.20;0.20;;;;;;;;;;6272531;28;20087;-76
2024/03/25 05:10:34;;;;;;;0.27;0.27;;;;;;;;;;6272926;28;20053;-76
2024/03/25 05:13:35;;;;;;;1.83;0.40;;;;;;;;;;6273576;28;20025;-76
2024/03/25 05:16:36;;;;;;;1.47;0.30;;;;;;;;;;6277935;28;20029;-76
2024/03/25 05:19:36;;;;;;;1.02;0.30;;;;;;;;;;6270898;28;20033;-76
2024/03/25 05:22:36;;;;;;;0.60;0.40;;;;;;;;;;6272054;28;20045;-76
2024/03/25 05:25:38;;;;;;;0.30;0.30;;;;;;;;;;6273437;28;20096;-75
2024/03/25 05:28:38;;;;;;;0.52;0.40;;;;;;;;;;6273045;28;20446;-76
2024/03/25 05:31:39;;;;;;;0.20;0.20;;;;;;;;;;6269926;28;20071;-76
2024/03/25 05:34:39;;;;;;;0.73;0.40;;;;;;;;;;6293166;28;20507;-76
2024/03/25 05:37:39;;;;;;;0.60;0.37;;;;;;;;;;6253857;28;20035;-75
2024/03/25 05:40:40;;;;;;;0.40;0.40;;;;;;;;;;6273112;28;20484;-76
2024/03/25 05:43:40;;;;;;;2.53;0.33;;;;;;;;;;6272794;28;20532;-76
2024/03/25 05:46:40;;;;;;;0.20;0.20;;;;;;;;;;6271697;28;20541;-76
2024/03/25 05:49:40;;;;;;;0.43;0.40;;;;;;;;;;6275983;28;20540;-76
2024/03/25 05:52:41;;;;;;;0.50;0.30;;;;;;;;;;6275747;28;20086;-76
2024/03/25 05:55:41;;;;;;;0.80;0.50;;;;;;;;;;6272323;28;20538;-76
2024/03/25 05:58:41;;;;;;;0.70;0.20;;;;;;;;;;6271089;28;20485;-76
2024/03/25 06:01:41;;;;;;;0.53;0.40;;;;;;;;;;6272774;28;20481;-76
2024/03/25 06:04:41;;;;;;;1.13;0.50;;;;;;;;;;6270858;28;20534;-76
2024/03/25 06:07:42;;;;;;;0.30;0.30;;;;;;;;;;6273508;28;20542;-73
2024/03/25 06:10:42;;;;;;;1.67;0.60;;;;;;;;;;6306039;28;20048;-72
2024/03/25 06:13:45;;;;;;;0.57;0.50;;;;;;;;;;6288991;28;20492;-72
2024/03/25 06:16:45;;;;;;;0.60;0.47;;;;;;;;;;6278632;28;20457;-73
2024/03/25 06:19:45;;;;;;;1.33;0.93;;;;;;;;;;6278578;28;20029;-72
2024/03/25 06:22:45;;;;;;;1.50;1.10;;;;;;;;;;6279813;28;20029;-72
2024/03/25 06:25:46;;;;;;;0.87;0.77;;;;;;;;;;6280818;28;20033;-73
2024/03/25 06:28:46;;;;;;;0.90;0.80;;;;;;;;;;6278741;28;20021;-72
2024/03/25 06:35:05;;;;;;;1.02;0.60;;;;;;;;;;6278581;28;20025;-73
2024/03/25 06:38:06;;;;;;;1.57;0.50;;;;;;;;;;6278893;28;20389;-72
2024/03/25 06:41:06;;;;;;;0.60;0.45;;;;;;;;;;6280903;28;20031;-73
2024/03/25 06:44:07;;;;;;;0.83;0.43;;;;;;;;;;6279969;28;20040;-73
2024/03/25 06:47:07;;;;;;;1.10;0.53;;;;;;;;;;6261388;28;20025;-75
2024/03/25 06:50:07;;;;;;;0.50;0.40;;;;;;;;;;6278128;28;20025;-73
2024/03/25 06:53:07;;;;;;;0.73;0.60;;;;;;;;;;6278915;28;20029;-73
2024/03/25 06:56:08;;;;;;;0.77;0.50;;;;;;;;;;6280734;28;20017;-73
2024/03/25 06:59:08;;;;;;;0.30;0.30;;;;;;;;;;6279537;28;20048;-73
2024/03/25 07:02:09;;;;;;;0.47;0.40;;;;;;;;;;6279148;28;20025;-74
2024/03/25 07:05:09;;;;;;;0.63;0.47;;;;;;;;;;6279165;28;20384;-74
2024/03/25 07:08:09;;;;;;;0.67;0.50;;;;;;;;;;6278684;28;20473;-74
2024/03/25 07:11:09;;;;;;;0.50;0.40;;;;;;;;;;6273526;28;20476;-73
2024/03/25 07:14:10;;;;;;;0.43;0.43;;;;;;;;;;6262464;28;20476;-74
2024/03/25 07:17:10;;;;;;;0.40;0.40;;;;;;;;;;6276528;28;20028;-73
2024/03/25 07:20:11;;;;;;;0.43;0.40;;;;;;;;;;6274841;28;20040;-75
2024/03/25 07:23:11;;;;;;;0.97;0.43;;;;;;;;;;6272475;28;20158;-74
2024/03/25 07:26:11;;;;;;;2.73;0.40;;;;;;;;;;6258819;28;20021;-74
2024/03/25 07:29:11;;;;;;;1.80;0.50;;;;;;;;;;6272279;28;20027;-73
2024/03/25 07:32:11;;;;;;;0.60;0.40;;;;;;;;;;6275240;28;20068;-73
2024/03/25 07:35:12;;;;;;;0.40;0.40;;;;;;;;;;6274569;28;20533;-73
2024/03/25 07:38:12;;;;;;;0.53;0.23;;;;;;;;;;6254092;28;20540;-73
2024/03/25 07:41:12;;;;;;;0.40;0.40;;;;;;;;;;6274036;28;20047;-73
2024/03/25 07:44:13;;;;;;;0.37;0.37;;;;;;;;;;6276020;28;20035;-72
2024/03/25 07:47:13;;;;;;;0.90;0.50;;;;;;;;;;6273267;28;20537;-73
2024/03/25 07:50:14;;;;;;;0.70;0.40;;;;;;;;;;6272447;28;20465;-72
2024/03/25 07:53:14;;;;;;;0.30;0.30;;;;;;;;;;6271757;28;20421;-73
2024/03/25 07:56:15;;;;;;;0.40;0.30;;;;;;;;;;6255783;28;20033;-73
2024/03/25 07:59:15;;;;;;;0.30;0.30;;;;;;;;;;6247198;28;20490;-73
2024/03/25 08:02:16;;;;;;;0.70;0.30;;;;;;;;;;6256230;28;20627;-73
2024/03/25 08:05:16;;;;;;;0.30;0.30;;;;;;;;;;6274883;28;20179;-73
2024/03/25 08:08:16;;;;;;;0.70;0.47;;;;;;;;;;6274135;28;20533;-73
2024/03/25 08:11:16;;;;;;;0.63;0.40;;;;;;;;;;6273588;28;20630;-73
2024/03/25 08:14:17;;;;;;;0.50;0.50;;;;;;;;;;6273313;28;20021;-72
2024/03/25 08:17:17;;;;;;;0.67;0.50;;;;;;;;;;6270360;28;20032;-72
2024/03/25 08:20:17;;;;;;;0.70;0.40;;;;;;;;;;6272112;28;20040;-72
2024/03/25 08:23:17;;;;;;;0.43;0.33;;;;;;;;;;6272583;28;20025;-73
2024/03/25 08:26:17;;;;;;;0.43;0.30;;;;;;;;;;6274474;28;20025;-72
2024/03/25 08:29:18;;;;;;;0.67;0.30;;;;;;;;;;6271525;28;20021;-72
2024/03/25 08:32:18;;;;;;;0.50;0.40;;;;;;;;;;6266737;28;20393;-72
2024/03/25 08:35:18;;;;;;;0.20;0.20;;;;;;;;;;6274319;28;20079;-72
2024/03/25 08:38:18;;;;;;;0.50;0.40;;;;;;;;;;6273028;28;20021;-76
2024/03/25 08:41:19;;;;;;;0.77;0.40;;;;;;;;;;6291350;28;20032;-76
2024/03/25 08:44:19;;;;;;;0.40;0.30;;;;;;;;;;6274156;28;20021;-75
2024/03/25 08:47:19;;;;;;;1.00;0.40;;;;;;;;;;6269489;28;20139;-75
2024/03/25 08:50:19;;;;;;;0.40;0.40;;;;;;;;;;6262201;28;20059;-75
2024/03/25 08:53:20;;;;;;;0.50;0.33;;;;;;;;;;6271615;28;20048;-74
2024/03/25 08:56:20;;;;;;;0.83;0.30;;;;;;;;;;6270544;28;20053;-75
2024/03/25 08:59:20;;;;;;;0.50;0.40;;;;;;;;;;6273034;28;20072;-75
2024/03/25 09:02:21;;;;;;;0.60;0.40;;;;;;;;;;6270843;28;20110;-75
2024/03/25 09:05:21;;;;;;;0.55;0.30;;;;;;;;;;6265454;28;20071;-75
2024/03/25 09:08:22;;;;;;;0.60;0.50;;;;;;;;;;6271736;28;20465;-75
2024/03/25 09:11:24;;;;;;;0.53;0.40;;;;;;;;;;6273183;28;20552;-74
2024/03/25 09:14:25;;;;;;;0.70;0.60;;;;;;;;;;6266837;28;20037;-74
2024/03/25 09:17:25;;;;;;;0.53;0.53;;;;;;;;;;6271074;28;20492;-75
2024/03/25 09:20:26;;;;;;;0.30;0.30;;;;;;;;;;6272325;28;20473;-75
2024/03/25 09:23:27;;;;;;;0.75;0.30;;;;;;;;;;6271943;28;20515;-75
2024/03/25 09:26:27;;;;;;;;;;;;;;;;;;6271301;28;20491;-75
2024/03/25 09:29:27;;;;;;;0.40;0.30;;;;;;;;;;6266673;28;19908;-75
2024/03/25 09:32:28;;;;;;;0.40;0.40;;;;;;;;;;6269325;28;20029;-75
2024/03/25 09:35:28;;;;;;;0.40;0.40;;;;;;;;;;6262392;28;20034;-76
2024/03/25 09:38:28;;;;;;;0.90;0.30;;;;;;;;;;6270369;28;20078;-75
2024/03/25 09:41:29;;;;;;;0.30;0.30;;;;;;;;;;6269152;28;20029;-75
2024/03/25 09:44:31;;;;;;;1.00;0.40;;;;;;;;;;6272749;28;20108;-75
2024/03/25 09:47:31;;;;;;;;;;;;;;;;;;6270167;28;20059;-75
2024/03/25 09:50:31;;;;;;;0.32;0.28;;;;;;;;;;6255443;28;20346;-75
2024/03/25 09:53:31;;;;;;;0.20;0.20;;;;;;;;;;6269591;28;20013;-75
2024/03/25 09:56:32;;;;;;;0.43;0.40;;;;;;;;;;6272030;28;20021;-75
2024/03/25 09:59:32;;;;;;;0.50;0.50;;;;;;;;;;6270627;28;20485;-80
2024/03/25 10:02:34;;;;;;;0.43;0.33;;;;;;;;;;6271735;28;20252;-75
2024/03/25 10:05:34;;;;;;;0.30;0.20;;;;;;;;;;6267402;28;20029;-76
2024/03/25 10:08:34;;;;;;;0.70;0.37;;;;;;;;;;6267723;28;20481;-76
2024/03/25 10:11:35;;;;;;;0.30;0.30;;;;;;;;;;6272596;28;20025;-76
2024/03/25 10:14:36;;;;;;;0.50;0.40;;;;;;;;;;6272418;28;20056;-77
2024/03/25 10:17:36;;;;;;;;;;;;;;;;;;6271009;28;20052;-76
2024/03/25 10:20:37;;;;;;;0.43;0.17;;;;;;;;;;6272432;28;19913;-77
2024/03/25 10:23:41;;;;;;;0.93;0.30;;;;;;;;;;6265507;28;20532;-76
2024/03/25 10:26:42;;;;;;;0.90;0.57;;;;;;;;;;6255208;28;20572;-76
2024/03/25 10:29:42;;;;;;;1.70;0.93;;;;;;;;;;6273468;28;20042;-75
2024/03/25 10:32:43;;;;;;;1.10;0.90;;;;;;;;;;6268476;28;20107;-76
2024/03/25 10:35:44;;;;;;;1.20;0.47;;;;;;;;;;6266654;28;20016;-76
2024/03/25 10:38:45;;;;;;;0.50;0.50;;;;;;;;;;6277880;28;20111;-76
2024/03/25 10:41:45;;;;;;;;;;;;;;;;;;6271832;28;20128;-76
2024/03/25 10:44:47;;;;;;;0.30;0.28;;;;;;;;;;6272574;28;20024;-76
2024/03/25 10:47:48;;;;;;;0.38;0.30;;;;;;;;;;6270960;28;20017;-76
2024/03/25 10:50:49;;;;;;;0.77;0.40;;;;;;;;;;6253008;28;20523;-76
2024/03/25 10:53:52;;;;;;;0.40;0.40;;;;;;;;;;6272554;28;20027;-76
2024/03/25 10:56:52;;;;;;;0.28;0.28;;;;;;;;;;6277466;28;20017;-73
2024/03/25 10:59:53;;;;;;;0.40;0.37;;;;;;;;;;6276345;28;20131;-73
2024/03/25 11:02:54;;;;;;;0.40;0.40;;;;;;;;;;6275421;28;20025;-73
2024/03/25 11:05:54;;;;;;;1.05;0.30;;;;;;;;;;6276715;28;20358;-73
2024/03/25 11:08:58;;;;;;;0.37;0.33;;;;;;;;;;6275013;28;20449;-73
2024/03/25 11:11:59;;;;;;;0.43;0.32;;;;;;;;;;6263718;28;20053;-74
2024/03/25 11:15:00;;;;;;;0.60;0.40;;;;;;;;;;6275948;28;20036;-73
2024/03/25 11:18:01;;;;;;;0.40;0.40;;;;;;;;;;6274961;28;20492;-73
2024/03/25 11:21:05;;;;;;;0.60;0.20;;;;;;;;;;6275193;28;20076;-73
2024/03/25 11:24:06;;;;;;;0.40;0.30;;;;;;;;;;6275309;28;20300;-73
2024/03/25 11:27:07;;;;;;;1.05;0.40;;;;;;;;;;6276076;28;20023;-74
2024/03/25 11:30:07;;;;;;;0.47;0.43;;;;;;;;;;6274625;28;20038;-73
2024/03/25 11:33:08;;;;;;;0.40;0.40;;;;;;;;;;6265264;28;20021;-73
2024/03/25 11:36:09;;;;;;;1.10;0.33;;;;;;;;;;6276009;28;20537;-73
2024/03/25 11:39:09;;;;;;;0.30;0.30;;;;;;;;;;6274563;28;20055;-74
2024/03/25 11:42:10;;;;;;;0.30;0.30;;;;;;;;;;6273629;28;20033;-74
2024/03/25 11:45:16;;;;;;;1.70;0.63;;;;;;;;;;6242687;28;20524;-74
2024/03/25 11:48:17;;;;;;;1.42;1.20;;;;;;;;;;6273175;28;20019;-73
2024/03/25 11:51:17;;;;;;;0.88;0.70;;;;;;;;;;6274238;28;20029;-73
2024/03/25 11:54:18;;;;;;;0.53;0.50;;;;;;;;;;6274829;28;20469;-73
2024/03/25 11:57:19;;;;;;;0.32;0.32;;;;;;;;;;6275465;28;20453;-73
2024/03/25 12:00:19;;;;;;;0.40;0.40;;;;;;;;;;6274334;28;20076;-73
2024/03/25 12:03:19;;;;;;;0.57;0.30;;;;;;;;;;6272066;28;20602;-74
2024/03/25 12:06:19;;;;;;;0.30;0.30;;;;;;;;;;6274235;28;20100;-74
2024/03/25 12:12:39;;;;;;;0.55;0.32;;;;;;;;;;6273992;28;20425;-73
2024/03/25 12:15:39;;;;;;;0.40;0.40;;;;;;;;;;6275192;28;20048;-73
2024/03/25 12:18:41;;;;;;;0.77;0.40;;;;;;;;;;6268128;28;20021;-76
2024/03/25 12:21:41;;;;;;;0.50;0.20;;;;;;;;;;6273148;28;20032;-75
2024/03/25 12:24:42;;;;;;;0.30;0.27;;;;;;;;;;6273582;28;20029;-75
2024/03/25 12:27:45;;;;;;;0.23;0.23;;;;;;;;;;6273771;28;20278;-76
2024/03/25 12:30:49;;;;;;;0.30;0.30;;;;;;;;;;6274656;28;20035;-76
2024/03/25 12:33:50;;;;;;;0.20;0.20;;;;;;;;;;6273242;28;20420;-77
2024/03/25 12:36:50;;;;;;;0.40;0.40;;;;;;;;;;6272135;28;20056;-78
2024/03/25 12:39:50;;;;;;;0.80;0.40;;;;;;;;;;6272554;28;20063;-77
2024/03/25 12:42:54;;;;;;;0.40;0.30;;;;;;;;;;6268255;28;20516;-76
2024/03/25 12:45:54;;;;;;;1.33;0.50;;;;;;;;;;6249885;28;20029;-76
2024/03/25 12:48:54;;;;;;;0.47;0.30;;;;;;;;;;6270889;28;20040;-74
2024/03/25 12:51:55;;;;;;;0.30;0.30;;;;;;;;;;6272491;28;20033;-76
2024/03/25 12:54:55;;;;;;;0.63;0.40;;;;;;;;;;6281534;28;20040;-76
2024/03/25 12:57:55;;;;;;;0.50;0.40;;;;;;;;;;6298872;28;20154;-75
2024/03/25 13:00:55;;;;;;;0.60;0.40;;;;;;;;;;6289195;28;20061;-76
2024/03/25 13:03:56;;;;;;;1.33;0.40;;;;;;;;;;6270097;28;20108;-76
2024/03/25 13:06:56;;;;;;;0.40;0.30;;;;;;;;;;6271704;28;20503;-76
2024/03/25 13:09:56;;;;;;;0.47;0.30;;;;;;;;;;6273932;28;20319;-75
2024/03/25 13:12:56;;;;;;;0.87;0.40;;;;;;;;;;6267606;28;20511;-75
2024/03/25 13:15:57;;;;;;;0.30;0.30;;;;;;;;;;6274323;28;20032;-75
2024/03/25 13:18:57;;;;;;;0.50;0.40;;;;;;;;;;6258764;28;20044;-76
2024/03/25 13:21:57;;;;;;;0.80;0.30;;;;;;;;;;6270029;28;20091;-76
2024/03/25 13:24:58;;;;;;;0.50;0.40;;;;;;;;;;6254209;28;20029;-76
2024/03/25 13:27:58;;;;;;;0.30;0.30;;;;;;;;;;6270779;28;20016;-77
2024/03/25 13:30:58;;;;;;;0.40;0.30;;;;;;;;;;6274298;28;20020;-76
2024/03/25 13:33:58;;;;;;;0.20;0.20;;;;;;;;;;6270778;28;20028;-77
2024/03/25 13:36:59;;;;;;;0.40;0.30;;;;;;;;;;6265772;28;20036;-76
2024/03/25 13:39:59;;;;;;;0.30;0.30;;;;;;;;;;6272258;28;20052;-76
2024/03/25 13:42:59;;;;;;;0.30;0.30;;;;;;;;;;6269319;28;20027;-76
2024/03/25 13:45:59;;;;;;;0.30;0.30;;;;;;;;;;6272436;28;20033;-76
2024/03/25 13:48:59;;;;;;;0.40;0.40;;;;;;;;;;6259313;28;20025;-77
2024/03/25 13:52:00;;;;;;;0.93;0.73;;;;;;;;;;6264497;28;20029;-77
2024/03/25 13:55:01;;;;;;;1.10;0.70;;;;;;;;;;6265683;28;20017;-76
2024/03/25 13:58:01;;;;;;;0.70;0.50;;;;;;;;;;6272603;28;20104;-76
2024/03/25 14:01:01;;;;;;;0.77;0.40;;;;;;;;;;6272642;28;20413;-76
2024/03/25 14:04:02;;;;;;;0.30;0.30;;;;;;;;;;6271845;28;20032;-76
2024/03/25 14:07:02;;;;;;;0.40;0.30;;;;;;;;;;6267497;28;20025;-76
2024/03/25 14:10:03;;;;;;;0.40;0.40;;;;;;;;;;6257718;28;20025;-76
2024/03/25 14:13:05;;;;;;;0.50;0.40;;;;;;;;;;6272589;28;20053;-76
2024/03/25 14:16:05;;;;;;;0.68;0.60;;;;;;;;;;6271307;28;20040;-76
2024/03/25 14:19:06;;;;;;;0.57;0.30;;;;;;;;;;6250837;28;20033;-75
2024/03/25 14:22:06;;;;;;;0.27;0.27;;;;;;;;;;6270617;28;20493;-75
2024/03/25 14:25:07;;;;;;;0.80;0.40;;;;;;;;;;6273082;28;20423;-74
2024/03/25 14:28:07;;;;;;;1.17;0.40;;;;;;;;;;6275375;28;20017;-79
2024/03/25 14:31:08;;;;;;;0.30;0.30;;;;;;;;;;6278203;28;20083;-79
2024/03/25 14:34:08;;;;;;;1.35;0.47;;;;;;;;;;6274349;28;20687;-77
2024/03/25 14:37:08;;;;;;;0.30;0.30;;;;;;;;;;6273370;28;20033;-77
2024/03/25 14:40:09;;;;;;;0.50;0.30;;;;;;;;;;6276837;28;20037;-77
2024/03/25 14:43:09;;;;;;;0.20;0.20;;;;;;;;;;6271955;28;20029;-76
2024/03/25 14:46:09;;;;;;;0.37;0.37;;;;;;;;;;6259219;28;20100;-77
2024/03/25 14:49:09;;;;;;;0.53;0.40;;;;;;;;;;6275209;28;20024;-77
2024/03/25 14:52:10;;;;;;;0.30;0.30;;;;;;;;;;6276586;28;20480;-76
2024/03/25 14:55:11;;;;;;;0.33;0.30;;;;;;;;;;6275075;28;20358;-77
2024/03/25 14:58:11;;;;;;;;;;;;;;;;;;6276790;28;20377;-77
2024/03/25 15:01:11;;;;;;;1.33;0.40;;;;;;;;;;6277086;28;19917;-76
2024/03/25 15:04:11;;;;;;;0.20;0.20;;;;;;;;;;6275010;28;20021;-76
2024/03/25 15:07:12;;;;;;;0.43;0.27;;;;;;;;;;6275715;28;20087;-76
2024/03/25 15:10:12;;;;;;;0.27;0.27;;;;;;;;;;6277969;28;20562;-76
2024/03/25 15:13:12;;;;;;;0.50;0.20;;;;;;;;;;6269817;28;20354;-76
2024/03/25 15:16:12;;;;;;;0.50;0.40;;;;;;;;;;6276360;28;20481;-76
2024/03/25 15:19:13;;;;;;;0.43;0.30;;;;;;;;;;6258365;28;20040;-76
2024/03/25 15:22:13;;;;;;;0.50;0.45;;;;;;;;;;6269818;28;20039;-76
2024/03/25 15:25:14;;;;;;;1.80;0.63;;;;;;;;;;6276372;28;20527;-76
2024/03/25 15:28:15;;;;;;;0.75;0.40;;;;;;;;;;6275879;28;20477;-76
2024/03/25 15:31:15;;;;;;;0.77;0.40;;;;;;;;;;6275492;28;20033;-77
2024/03/25 15:34:15;;;;;;;0.80;0.47;;;;;;;;;;6273090;28;20063;-77
2024/03/25 15:37:16;;;;;;;0.30;0.30;;;;;;;;;;6267413;28;20075;-74
2024/03/25 15:40:18;;;;;;;0.30;0.30;;;;;;;;;;6270510;28;20473;-76
2024/03/25 15:43:18;;;;;;;0.40;0.32;;;;;;;;;;6274794;28;20021;-75
2024/03/25 15:46:18;;;;;;;0.83;0.63;;;;;;;;;;6288203;28;20028;-75
2024/03/25 15:49:19;;;;;;;1.03;0.57;;;;;;;;;;6255605;28;20482;-74
2024/03/25 15:52:19;;;;;;;0.70;0.57;;;;;;;;;;6255595;28;20423;-75
2024/03/25 15:55:20;;;;;;;0.40;0.40;;;;;;;;;;6271166;28;20278;-75
2024/03/25 15:58:20;;;;;;;0.73;0.40;;;;;;;;;;6271160;28;20449;-75
2024/03/25 16:01:20;;;;;;;0.63;0.40;;;;;;;;;;6257854;28;20037;-75
2024/03/25 16:04:21;;;;;;;0.30;0.30;;;;;;;;;;6253540;28;20083;-75
2024/03/25 16:07:21;;;;;;;0.40;0.40;;;;;;;;;;6261732;28;20104;-75
2024/03/25 16:10:22;;;;;;;0.30;0.30;;;;;;;;;;6255564;28;20104;-75
2024/03/25 16:13:22;;;;;;;1.02;0.57;;;;;;;;;;6272272;28;20017;-75
2024/03/25 16:16:22;;;;;;;0.60;0.30;;;;;;;;;;6241552;28;20531;-74
2024/03/25 16:19:22;;;;;;;0.50;0.40;;;;;;;;;;6271654;28;20124;-74
2024/03/25 16:22:24;;;;;;;0.73;0.50;;;;;;;;;;6270660;28;20108;-74
2024/03/25 16:25:24;;;;;;;0.38;0.38;;;;;;;;;;6275209;28;20036;-74
2024/03/25 16:28:24;;;;;;;0.30;0.30;;;;;;;;;;6265259;28;20025;-76
2024/03/25 16:31:24;;;;;;;0.57;0.40;;;;;;;;;;6252459;28;20025;-75
2024/03/25 16:34:24;;;;;;;0.50;0.33;;;;;;;;;;6265586;28;20535;-75
2024/03/25 16:37:25;;;;;;;0.70;0.40;;;;;;;;;;6259208;28;20492;-76
2024/03/25 16:40:25;;;;;;;0.50;0.40;;;;;;;;;;6274836;28;20040;-76
2024/03/25 16:43:26;;;;;;;0.90;0.30;;;;;;;;;;6274099;28;20479;-76
2024/03/25 16:46:26;;;;;;;0.83;0.40;;;;;;;;;;6271660;28;20070;-76
2024/03/25 16:49:26;;;;;;;0.33;0.30;;;;;;;;;;6272196;28;20025;-74
2024/03/25 16:52:26;;;;;;;0.93;0.40;;;;;;;;;;6272870;28;20029;-75
2024/03/25 16:55:27;;;;;;;0.90;0.67;;;;;;;;;;6274109;28;20025;-75
2024/03/25 16:58:27;;;;;;;0.77;0.77;;;;;;;;;;6274149;28;20021;-75
2024/03/25 17:01:27;;;;;;;0.87;0.60;;;;;;;;;;6271712;28;20485;-75
2024/03/25 17:04:27;;;;;;;0.70;0.47;;;;;;;;;;6253438;28;20461;-75
2024/03/25 17:07:28;;;;;;;0.50;0.40;;;;;;;;;;6273476;28;20025;-76
2024/03/25 17:10:31;;;;;;;1.13;0.40;;;;;;;;;;6274672;28;20033;-76
2024/03/25 17:13:31;;;;;;;0.57;0.40;;;;;;;;;;6273014;28;20025;-75
2024/03/25 17:16:32;;;;;;;0.43;0.37;;;;;;;;;;6271914;28;20025;-75
2024/03/25 17:19:32;;;;;;;0.40;0.30;;;;;;;;;;6271997;28;20462;-74
2024/03/25 17:22:32;;;;;;;0.67;0.60;;;;;;;;;;6272582;28;20033;-74
2024/03/25 17:25:36;;;;;;;0.60;0.40;;;;;;;;;;6270562;28;20277;-74
2024/03/25 17:28:36;;;;;;;1.17;0.80;;;;;;;;;;6268463;28;20036;-74
2024/03/25 17:31:36;;;;;;;1.30;0.90;;;;;;;;;;6271858;28;20018;-74
2024/03/25 17:34:36;;;;;;;1.67;0.90;;;;;;;;;;6267702;28;20032;-74
2024/03/25 17:37:37;;;;;;;0.70;0.63;;;;;;;;;;6268940;28;20029;-74
2024/03/25 17:40:37;;;;;;;1.07;0.70;;;;;;;;;;6270575;28;20037;-74
2024/03/25 17:43:38;;;;;;;1.40;0.63;;;;;;;;;;6268959;28;20481;-74
2024/03/25 17:46:38;;;;;;;2.83;1.73;;;;;;;;;;6272556;28;20025;-76
2024/03/25 17:49:39;;;;;;;1.60;1.30;;;;;;;;;;6266754;28;20100;-75
2024/03/25 17:52:39;;;;;;;1.67;1.00;;;;;;;;;;6266802;28;20139;-76
2024/03/25 17:55:39;;;;;;;1.00;0.87;;;;;;;;;;6272387;28;20047;-75
2024/03/25 17:58:39;;;;;;;1.23;0.80;;;;;;;;;;6266888;28;20393;-76
2024/03/25 18:01:40;;;;;;;1.00;0.73;;;;;;;;;;6262560;28;20478;-76
2024/03/25 18:04:40;;;;;;;1.57;0.73;;;;;;;;;;6267724;28;20501;-76
2024/03/25 18:07:42;;;;;;;1.10;0.97;;;;;;;;;;6270331;28;20052;-75
2024/03/25 18:10:43;;;;;;;1.40;1.00;;;;;;;;;;6270062;28;20037;-76